createdAt,value
2018-04-22T00:01:07.057Z,62.30
2018-04-22T00:03:34.562Z,62.30
2018-04-22T00:06:02.078Z,62.70
2018-04-22T00:08:29.610Z,63.40
2018-04-22T00:10:57.135Z,64.10
2018-04-22T00:13:25.415Z,64.70
2018-04-22T00:15:53.682Z,65.10
2018-04-22T00:18:21.194Z,65.10
2018-04-22T00:20:48.712Z,64.90
2018-04-22T00:23:17.038Z,64.80
2018-04-22T00:25:44.554Z,64.70
2018-04-22T00:28:12.868Z,64.60
2018-04-22T00:30:40.366Z,64.50
2018-04-22T00:33:07.912Z,65.00
2018-04-22T00:35:35.416Z,64.00
2018-04-22T00:38:02.918Z,64.40
2018-04-22T00:40:30.455Z,64.60
2018-04-22T00:42:58.748Z,64.70
2018-04-22T00:45:27.058Z,64.00
2018-04-22T00:47:54.570Z,64.00
2018-04-22T00:50:22.088Z,64.50
2018-04-22T00:52:49.612Z,64.30
2018-04-22T00:55:17.887Z,64.80
2018-04-22T00:57:46.208Z,64.60
2018-04-22T01:00:13.721Z,64.60
2018-04-22T01:02:41.246Z,64.20
2018-04-22T01:05:08.765Z,64.40
2018-04-22T01:07:37.052Z,63.70
2018-04-22T01:10:05.326Z,64.30
2018-04-22T01:12:33.638Z,63.80
2018-04-22T01:15:01.149Z,63.80
2018-04-22T01:17:29.450Z,64.00
2018-04-22T01:19:56.982Z,63.90
2018-04-22T01:22:24.498Z,64.20
2018-04-22T01:24:52.023Z,64.30
2018-04-22T01:27:19.537Z,65.00
2018-04-22T01:29:47.091Z,65.00
2018-04-22T01:32:15.371Z,64.60
2018-04-22T01:34:43.647Z,64.30
2018-04-22T01:37:11.936Z,64.20
2018-04-22T01:39:39.439Z,64.20
2018-04-22T01:42:07.081Z,64.80
2018-04-22T01:44:34.583Z,64.40
2018-04-22T01:47:02.118Z,64.50
2018-04-22T01:49:29.630Z,64.10
2018-04-22T01:51:57.912Z,64.90
2018-04-22T01:54:26.222Z,64.80
2018-04-22T01:56:53.727Z,64.50
2018-04-22T01:59:21.260Z,64.90
2018-04-22T02:01:48.763Z,65.00
2018-04-22T02:04:16.285Z,65.20
2018-04-22T02:06:43.809Z,65.00
2018-04-22T02:09:11.373Z,64.80
2018-04-22T02:11:38.885Z,65.70
2018-04-22T02:14:06.411Z,65.00
2018-04-22T02:16:34.700Z,64.90
2018-04-22T02:19:02.287Z,64.90
2018-04-22T02:21:29.819Z,64.60
2018-04-22T02:23:58.108Z,64.60
2018-04-22T02:26:26.393Z,64.10
2018-04-22T02:28:54.675Z,63.80
2018-04-22T02:31:22.968Z,63.50
2018-04-22T02:33:50.478Z,63.50
2018-04-22T02:36:18.003Z,63.30
2018-04-22T02:38:45.542Z,63.40
2018-04-22T02:41:13.823Z,63.90
2018-04-22T02:43:42.107Z,63.50
2018-04-22T02:46:10.376Z,63.40
2018-04-22T02:48:38.674Z,63.40
2018-04-22T02:51:06.946Z,63.40
2018-04-22T02:53:35.246Z,63.20
2018-04-22T02:56:02.766Z,63.10
2018-04-22T02:58:30.299Z,63.00
2018-04-22T03:00:57.837Z,62.90
2018-04-22T03:03:25.342Z,62.80
2018-04-22T03:05:52.864Z,62.70
2018-04-22T03:08:20.376Z,62.50
2018-04-22T03:10:47.890Z,62.80
2018-04-22T03:13:15.400Z,63.00
2018-04-22T03:15:42.923Z,63.30
2018-04-22T03:18:10.441Z,63.90
2018-04-22T03:20:38.729Z,64.60
2018-04-22T03:23:07.011Z,64.40
2018-04-22T03:25:35.333Z,64.70
2018-04-22T03:28:02.846Z,64.70
2018-04-22T03:30:30.374Z,65.50
2018-04-22T03:32:57.896Z,67.10
2018-04-22T03:35:26.166Z,67.30
2018-04-22T03:37:54.459Z,67.10
2018-04-22T03:40:22.740Z,67.30
2018-04-22T03:42:51.039Z,68.40
2018-04-22T03:45:18.539Z,68.40
2018-04-22T03:47:46.067Z,68.50
2018-04-22T03:50:13.590Z,68.30
2018-04-22T03:52:41.090Z,68.10
2018-04-22T03:55:08.624Z,68.30
2018-04-22T03:57:36.129Z,68.10
2018-04-22T04:00:03.656Z,68.00
2018-04-22T04:02:31.935Z,67.90
2018-04-22T04:05:00.239Z,68.40
2018-04-22T04:07:27.761Z,67.90
2018-04-22T04:09:55.383Z,68.10
2018-04-22T04:12:22.920Z,68.00
2018-04-22T04:14:51.205Z,67.60
2018-04-22T04:17:19.491Z,67.40
2018-04-22T04:19:59.670Z,67.10
2018-04-22T04:22:44.788Z,67.10
2018-04-22T04:25:38.078Z,66.70
2018-04-22T04:28:05.738Z,66.40
2018-04-22T04:30:33.255Z,66.30
2018-04-22T04:33:00.782Z,66.60
2018-04-22T04:35:28.291Z,66.70
2018-04-22T04:37:57.301Z,66.70
2018-04-22T04:40:25.591Z,66.70
2018-04-22T04:42:53.112Z,66.70
2018-04-22T04:45:20.635Z,66.60
2018-04-22T04:47:48.142Z,66.50
2018-04-22T04:50:15.686Z,67.00
2018-04-22T04:52:43.203Z,66.70
2018-04-22T04:55:11.531Z,67.40
2018-04-22T04:57:39.047Z,67.20
2018-04-22T05:00:07.347Z,66.10
2018-04-22T05:02:34.876Z,66.00
2018-04-22T05:05:02.403Z,66.30
2018-04-22T05:07:29.944Z,66.60
2018-04-22T05:09:57.448Z,67.50
2018-04-22T05:12:24.985Z,67.80
2018-04-22T05:14:52.481Z,68.70
2018-04-22T05:17:20.029Z,68.70
2018-04-22T05:19:47.550Z,68.10
2018-04-22T05:22:15.077Z,68.70
2018-04-22T05:24:42.593Z,67.30
2018-04-22T05:27:10.163Z,68.90
2018-04-22T05:29:37.680Z,68.10
2018-04-22T05:32:05.976Z,63.80
2018-04-22T05:34:34.262Z,62.10
2018-04-22T05:37:02.502Z,60.60
2018-04-22T05:39:30.032Z,60.40
2018-04-22T05:41:57.556Z,61.00
2018-04-22T05:44:25.849Z,60.20
2018-04-22T05:46:54.162Z,60.00
2018-04-22T05:49:21.716Z,60.00
2018-04-22T05:51:49.223Z,59.90
2018-04-22T05:54:16.742Z,60.20
2018-04-22T05:56:44.278Z,59.10
2018-04-22T05:59:12.549Z,59.30
2018-04-22T06:01:40.853Z,58.80
2018-04-22T06:04:09.119Z,58.60
2018-04-22T06:06:37.424Z,57.80
2018-04-22T06:09:04.948Z,57.70
2018-04-22T06:11:32.489Z,57.30
2018-04-22T06:14:00.014Z,56.90
2018-04-22T06:16:27.541Z,57.20
2018-04-22T06:18:55.075Z,55.90
2018-04-22T06:21:22.583Z,55.90
2018-04-22T06:23:50.889Z,56.50
2018-04-22T06:26:18.419Z,56.40
2018-04-22T06:28:45.985Z,56.20
2018-04-22T06:31:13.489Z,54.50
2018-04-22T06:33:41.055Z,53.90
2018-04-22T06:36:08.549Z,55.50
2018-04-22T06:38:36.126Z,55.60
2018-04-22T06:41:04.417Z,55.70
2018-04-22T06:43:31.926Z,55.80
2018-04-22T06:45:59.463Z,53.80
2018-04-22T06:48:27.737Z,55.10
2018-04-22T06:50:56.024Z,52.30
2018-04-22T06:53:24.365Z,53.60
2018-04-22T06:55:51.956Z,53.50
2018-04-22T06:58:19.471Z,53.70
2018-04-22T07:00:46.991Z,54.30
2018-04-22T07:03:14.507Z,52.10
2018-04-22T07:05:42.018Z,52.30
2018-04-22T07:08:10.333Z,53.40
2018-04-22T07:10:37.863Z,53.40
2018-04-22T07:13:06.158Z,57.50
2018-04-22T07:15:34.446Z,58.40
2018-04-22T07:18:02.740Z,59.50
2018-04-22T07:20:30.268Z,59.50
2018-04-22T07:22:57.818Z,59.60
2018-04-22T07:25:25.340Z,60.00
2018-04-22T07:27:52.853Z,59.90
2018-04-22T07:30:20.397Z,59.10
2018-04-22T07:32:47.911Z,59.30
2018-04-22T07:35:15.437Z,58.80
2018-04-22T07:37:42.948Z,58.00
2018-04-22T07:40:10.479Z,57.70
2018-04-22T07:42:38.772Z,57.20
2018-04-22T07:45:07.077Z,57.30
2018-04-22T07:47:34.596Z,57.20
2018-04-22T07:50:03.659Z,56.30
2018-04-22T07:52:31.166Z,56.80
2018-04-22T07:54:59.562Z,55.80
2018-04-22T07:57:27.142Z,55.80
2018-04-22T07:59:54.667Z,55.90
2018-04-22T08:02:22.665Z,54.60
2018-04-22T08:04:50.969Z,54.90
2018-04-22T08:07:18.506Z,54.80
2018-04-22T08:09:46.780Z,53.90
2018-04-22T08:12:14.360Z,53.80
2018-04-22T08:14:42.694Z,54.00
2018-04-22T08:17:10.232Z,54.00
2018-04-22T08:19:37.754Z,52.90
2018-04-22T08:22:05.290Z,53.30
2018-04-22T08:24:33.233Z,52.40
2018-04-22T08:27:01.772Z,53.10
2018-04-22T08:29:32.135Z,53.20
2018-04-22T08:32:01.985Z,53.00
2018-04-22T08:34:29.547Z,53.30
2018-04-22T08:36:57.071Z,52.80
2018-04-22T08:39:25.478Z,52.70
2018-04-22T08:41:53.590Z,52.70
2018-04-22T08:44:21.218Z,50.50
2018-04-22T08:46:48.763Z,49.40
2018-04-22T08:49:18.182Z,50.30
2018-04-22T08:51:47.179Z,50.40
2018-04-22T08:54:14.699Z,49.80
2018-04-22T08:56:42.335Z,49.60
2018-04-22T08:59:09.863Z,48.60
2018-04-22T09:01:37.377Z,47.90
2018-04-22T09:04:04.920Z,45.30
2018-04-22T09:06:32.440Z,45.90
2018-04-22T09:09:00.731Z,46.20
2018-04-22T09:11:29.008Z,45.60
2018-04-22T09:13:57.296Z,45.40
2018-04-22T09:16:25.591Z,47.10
2018-04-22T09:18:53.102Z,47.10
2018-04-22T09:21:20.645Z,44.30
2018-04-22T09:23:48.159Z,45.60
2018-04-22T09:26:16.458Z,42.90
2018-04-22T09:28:43.977Z,42.90
2018-04-22T09:31:12.263Z,44.00
2018-04-22T09:33:39.823Z,44.00
2018-04-22T09:36:07.346Z,43.50
2018-04-22T09:38:34.866Z,41.50
2018-04-22T09:41:03.163Z,40.30
2018-04-22T09:43:31.458Z,40.10
2018-04-22T09:45:59.043Z,40.00
2018-04-22T09:48:27.312Z,41.30
2018-04-22T09:50:54.834Z,41.30
2018-04-22T09:53:23.128Z,39.10
2018-04-22T09:55:50.672Z,39.10
2018-04-22T09:58:18.180Z,40.00
2018-04-22T10:00:46.540Z,39.60
2018-04-22T10:03:14.827Z,40.20
2018-04-22T10:05:53.993Z,39.50
2018-04-22T10:08:21.522Z,39.50
2018-04-22T10:10:49.871Z,39.80
2018-04-22T10:13:17.349Z,39.90
2018-04-22T10:15:45.611Z,39.40
2018-04-22T10:18:13.127Z,38.90
2018-04-22T10:20:40.657Z,38.80
2018-04-22T10:23:08.953Z,38.10
2018-04-22T10:25:37.255Z,37.60
2018-04-22T10:28:04.777Z,37.50
2018-04-22T10:30:33.068Z,37.60
2018-04-22T10:33:01.412Z,38.30
2018-04-22T10:35:28.894Z,38.30
2018-04-22T10:37:56.439Z,39.00
2018-04-22T10:40:24.003Z,37.90
2018-04-22T10:42:52.058Z,36.80
2018-04-22T10:45:19.592Z,36.90
2018-04-22T10:47:47.910Z,36.40
2018-04-22T10:50:15.440Z,36.40
2018-04-22T10:52:43.713Z,35.90
2018-04-22T10:55:12.072Z,35.10
2018-04-22T10:57:39.568Z,35.10
2018-04-22T11:00:07.841Z,33.90
2018-04-22T11:02:36.145Z,34.30
2018-04-22T11:05:03.715Z,34.30
2018-04-22T11:07:32.005Z,33.20
2018-04-22T11:09:59.552Z,33.10
2018-04-22T11:12:27.078Z,34.00
2018-04-22T11:14:55.358Z,33.00
2018-04-22T11:17:22.910Z,33.00
2018-04-22T11:19:50.428Z,32.30
2018-04-22T11:22:17.967Z,32.30
2018-04-22T11:24:46.253Z,32.60
2018-04-22T11:27:14.537Z,33.70
2018-04-22T11:29:42.135Z,33.80
2018-04-22T11:32:09.651Z,35.20
2018-04-22T11:34:37.982Z,35.00
2018-04-22T11:37:05.534Z,34.60
2018-04-22T11:39:33.092Z,33.50
2018-04-22T11:42:00.634Z,33.70
2018-04-22T11:44:28.167Z,34.90
2018-04-22T11:46:55.663Z,34.30
2018-04-22T11:49:23.975Z,32.90
2018-04-22T11:51:51.491Z,32.90
2018-04-22T11:54:19.769Z,33.90
2018-04-22T11:56:47.300Z,33.80
2018-04-22T11:59:14.818Z,32.70
2018-04-22T12:01:43.107Z,35.90
2018-04-22T12:04:10.658Z,35.80
2018-04-22T12:06:38.965Z,35.80
2018-04-22T12:09:06.476Z,35.70
2018-04-22T12:11:35.521Z,34.00
2018-04-22T12:14:03.041Z,33.80
2018-04-22T12:16:30.554Z,33.40
2018-04-22T12:18:58.089Z,31.80
2018-04-22T12:21:26.364Z,31.60
2018-04-22T12:23:54.647Z,34.10
2018-04-22T12:26:22.941Z,34.60
2018-04-22T12:28:51.235Z,33.40
2018-04-22T12:31:18.761Z,33.40
2018-04-22T12:33:47.074Z,32.20
2018-04-22T12:36:14.598Z,32.30
2018-04-22T12:38:42.121Z,33.10
2018-04-22T12:41:09.659Z,33.50
2018-04-22T12:43:37.935Z,33.40
2018-04-22T12:46:06.232Z,33.70
2018-04-22T12:48:33.747Z,33.60
2018-04-22T12:51:01.371Z,32.60
2018-04-22T12:53:28.887Z,31.60
2018-04-22T12:55:56.516Z,32.80
2018-04-22T12:58:24.043Z,34.10
2018-04-22T13:00:52.321Z,33.90
2018-04-22T13:03:20.612Z,35.70
2018-04-22T13:05:48.137Z,35.70
2018-04-22T13:08:15.687Z,35.10
2018-04-22T13:10:43.200Z,37.10
2018-04-22T13:13:10.742Z,35.80
2018-04-22T13:15:38.255Z,36.20
2018-04-22T13:18:05.774Z,35.20
2018-04-22T13:20:34.049Z,34.60
2018-04-22T13:23:02.354Z,35.20
2018-04-22T13:25:29.880Z,34.60
2018-04-22T13:27:57.408Z,34.90
2018-04-22T13:30:24.927Z,34.50
2018-04-22T13:32:53.217Z,33.50
2018-04-22T13:35:21.624Z,33.60
2018-04-22T13:37:49.138Z,33.60
2018-04-22T13:40:16.667Z,35.10
2018-04-22T13:42:44.176Z,33.00
2018-04-22T13:45:12.483Z,36.10
2018-04-22T13:47:40.759Z,35.70
2018-04-22T13:50:09.030Z,32.90
2018-04-22T13:52:37.323Z,34.30
2018-04-22T13:55:05.570Z,35.70
2018-04-22T13:57:33.874Z,35.70
2018-04-22T14:00:02.162Z,35.10
2018-04-22T14:02:30.515Z,35.80
2018-04-22T14:04:57.990Z,35.90
2018-04-22T14:07:26.290Z,35.30
2018-04-22T14:09:54.566Z,34.40
2018-04-22T14:12:22.855Z,36.10
2018-04-22T14:14:50.434Z,36.10
2018-04-22T14:17:17.999Z,34.00
2018-04-22T14:19:45.575Z,33.80
2018-04-22T14:22:13.834Z,34.90
2018-04-22T14:24:41.368Z,34.90
2018-04-22T14:27:09.637Z,35.00
2018-04-22T14:29:37.165Z,35.00
2018-04-22T14:32:04.692Z,34.50
2018-04-22T14:34:32.998Z,35.00
2018-04-22T14:37:00.790Z,35.00
2018-04-22T14:39:28.323Z,35.20
2018-04-22T14:41:55.843Z,36.70
2018-04-22T14:44:35.396Z,35.90
2018-04-22T14:47:02.909Z,35.70
2018-04-22T14:49:30.442Z,35.90
2018-04-22T14:51:58.727Z,36.10
2018-04-22T14:54:27.028Z,35.00
2018-04-22T14:56:54.549Z,35.00
2018-04-22T14:59:22.058Z,36.60
2018-04-22T15:01:49.602Z,34.70
2018-04-22T15:04:17.115Z,34.90
2018-04-22T15:06:44.642Z,34.30
2018-04-22T15:09:12.156Z,34.10
2018-04-22T15:11:39.703Z,34.40
2018-04-22T15:14:07.216Z,33.20
2018-04-22T15:16:35.510Z,34.40
2018-04-22T15:19:03.044Z,34.40
2018-04-22T15:21:31.330Z,36.90
2018-04-22T15:23:59.636Z,35.80
2018-04-22T15:26:27.153Z,35.80
2018-04-22T15:28:54.719Z,37.30
2018-04-22T15:31:22.253Z,36.50
2018-04-22T15:33:49.772Z,36.80
2018-04-22T15:36:18.079Z,37.00
2018-04-22T15:38:45.616Z,37.00
2018-04-22T15:41:13.952Z,37.20
2018-04-22T15:43:41.479Z,37.10
2018-04-22T15:46:08.999Z,37.00
2018-04-22T15:48:36.532Z,37.90
2018-04-22T15:51:04.040Z,37.00
2018-04-22T15:53:31.601Z,37.50
2018-04-22T15:55:59.119Z,37.10
2018-04-22T15:58:26.627Z,37.40
2018-04-22T16:00:54.151Z,37.70
2018-04-22T16:03:21.667Z,38.20
2018-04-22T16:05:50.001Z,36.70
2018-04-22T16:08:17.572Z,36.70
2018-04-22T16:10:45.084Z,36.90
2018-04-22T16:13:13.384Z,34.90
2018-04-22T16:15:40.943Z,34.90
2018-04-22T16:18:08.448Z,35.80
2018-04-22T16:20:35.980Z,37.70
2018-04-22T16:23:03.500Z,37.50
2018-04-22T16:25:31.796Z,36.20
2018-04-22T16:28:00.101Z,36.10
2018-04-22T16:30:27.625Z,36.20
2018-04-22T16:32:55.180Z,37.70
2018-04-22T16:35:22.747Z,38.10
2018-04-22T16:37:50.236Z,36.60
2018-04-22T16:40:18.535Z,36.10
2018-04-22T16:42:46.095Z,36.10
2018-04-22T16:45:13.622Z,37.20
2018-04-22T16:47:41.145Z,36.90
2018-04-22T16:50:08.741Z,35.60
2018-04-22T16:52:36.251Z,35.50
2018-04-22T16:55:03.776Z,34.90
2018-04-22T16:57:31.317Z,33.50
2018-04-22T16:59:58.846Z,31.70
2018-04-22T17:02:26.385Z,32.30
2018-04-22T17:04:54.661Z,33.80
2018-04-22T17:07:22.962Z,36.50
2018-04-22T17:09:51.235Z,38.80
2018-04-22T17:12:19.537Z,40.00
2018-04-22T17:14:47.097Z,40.00
2018-04-22T17:17:14.618Z,39.40
2018-04-22T17:19:43.060Z,40.90
2018-04-22T17:22:10.608Z,41.80
2018-04-22T17:24:38.158Z,42.30
2018-04-22T17:27:06.436Z,42.00
2018-04-22T17:29:34.732Z,42.30
2018-04-22T17:32:03.024Z,42.30
2018-04-22T17:34:30.557Z,42.30
2018-04-22T17:36:58.892Z,42.50
2018-04-22T17:39:26.452Z,42.40
2018-04-22T17:41:54.026Z,43.40
2018-04-22T17:44:21.675Z,43.90
2018-04-22T17:46:49.221Z,43.80
2018-04-22T17:49:16.760Z,43.50
2018-04-22T17:51:45.083Z,42.90
2018-04-22T17:54:12.602Z,42.90
2018-04-22T17:56:40.896Z,44.30
2018-04-22T17:59:09.304Z,44.60
2018-04-22T18:01:36.858Z,44.60
2018-04-22T18:04:05.193Z,45.90
2018-04-22T18:06:32.726Z,46.40
2018-04-22T18:09:00.280Z,46.20
2018-04-22T18:11:27.847Z,47.40
2018-04-22T18:13:55.395Z,48.00
2018-04-22T18:16:22.943Z,48.00
2018-04-22T18:18:51.239Z,48.00
2018-04-22T18:21:18.778Z,47.70
2018-04-22T18:23:46.386Z,47.80
2018-04-22T18:26:13.916Z,47.60
2018-04-22T18:28:42.270Z,47.70
2018-04-22T18:31:09.883Z,47.70
2018-04-22T18:33:37.563Z,47.60
2018-04-22T18:36:05.755Z,48.00
2018-04-22T18:38:33.325Z,48.30
2018-04-22T18:41:01.078Z,48.90
2018-04-22T18:43:28.603Z,49.90
2018-04-22T18:45:56.213Z,48.70
2018-04-22T18:48:23.878Z,48.40
2018-04-22T18:50:52.460Z,48.60
2018-04-22T18:53:20.027Z,48.90
2018-04-22T18:55:47.670Z,48.90
2018-04-22T18:58:15.257Z,48.70
2018-04-22T19:00:42.939Z,49.00
2018-04-22T19:03:10.693Z,48.90
2018-04-22T19:05:38.276Z,49.40
2018-04-22T19:08:05.880Z,49.80
2018-04-22T19:10:34.219Z,51.50
2018-04-22T19:13:01.821Z,51.50
2018-04-22T19:15:29.470Z,51.30
2018-04-22T19:17:57.062Z,51.00
2018-04-22T19:20:25.443Z,52.10
2018-04-22T19:22:53.914Z,51.80
2018-04-22T19:25:21.546Z,51.70
2018-04-22T19:27:49.149Z,51.80
2018-04-22T19:30:17.384Z,51.80
2018-04-22T19:32:44.992Z,52.30
2018-04-22T19:35:12.705Z,52.20
2018-04-22T19:37:40.844Z,53.50
2018-04-22T19:40:08.473Z,53.30
2018-04-22T19:42:36.105Z,53.00
2018-04-22T19:45:03.952Z,53.30
2018-04-22T19:47:32.346Z,53.70
2018-04-22T19:50:00.720Z,54.10
2018-04-22T19:52:28.317Z,54.10
2018-04-22T19:54:56.569Z,54.70
2018-04-22T19:57:24.972Z,54.00
2018-04-22T19:59:53.421Z,54.00
2018-04-22T20:02:21.477Z,54.30
2018-04-22T20:04:49.071Z,54.00
2018-04-22T20:07:17.450Z,54.00
2018-04-22T20:09:45.845Z,53.50
2018-04-22T20:12:14.227Z,53.90
2018-04-22T20:14:42.579Z,55.10
2018-04-22T20:17:10.131Z,54.60
2018-04-22T20:19:37.783Z,54.60
2018-04-22T20:22:05.334Z,55.20
2018-04-22T20:24:33.096Z,56.10
2018-04-22T20:27:00.640Z,56.60
2018-04-22T20:29:28.214Z,57.20
2018-04-22T20:31:56.517Z,58.10
2018-04-22T20:34:24.027Z,58.00
2018-04-22T20:36:51.576Z,57.90
2018-04-22T20:39:19.118Z,56.40
2018-04-22T20:41:46.650Z,55.90
2018-04-22T20:44:14.939Z,55.10
2018-04-22T20:46:43.258Z,55.30
2018-04-22T20:49:10.775Z,55.30
2018-04-22T20:51:39.089Z,56.40
2018-04-22T20:54:06.627Z,55.90
2018-04-22T20:56:34.939Z,57.40
2018-04-22T20:59:02.481Z,57.30
2018-04-22T21:01:30.765Z,58.00
2018-04-22T21:03:58.300Z,58.00
2018-04-22T21:06:25.815Z,58.30
2018-04-22T21:08:53.358Z,58.10
2018-04-22T21:11:20.979Z,58.40
2018-04-22T21:13:48.470Z,58.40
2018-04-22T21:16:16.778Z,58.40
2018-04-22T21:18:44.354Z,58.40
2018-04-22T21:21:11.894Z,58.30
2018-04-22T21:23:40.178Z,58.10
2018-04-22T21:26:08.493Z,58.20
2018-04-22T21:28:36.043Z,58.10
2018-04-22T21:31:04.288Z,58.30
2018-04-22T21:33:32.597Z,58.30
2018-04-22T21:36:00.103Z,58.30
2018-04-22T21:38:27.627Z,58.30
2018-04-22T21:40:55.194Z,58.40
2018-04-22T21:43:22.728Z,58.50
2018-04-22T21:45:51.015Z,58.70
2018-04-22T21:48:19.337Z,58.50
2018-04-22T21:50:46.850Z,58.40
2018-04-22T21:53:15.146Z,58.10
2018-04-22T21:55:43.455Z,57.80
2018-04-22T21:58:10.966Z,57.60
2018-04-22T22:00:38.498Z,57.50
2018-04-22T22:03:06.012Z,58.30
2018-04-22T22:05:34.329Z,58.60
2018-04-22T22:08:01.836Z,58.50
2018-04-22T22:10:29.378Z,59.10
2018-04-22T22:12:56.884Z,59.50
2018-04-22T22:15:25.198Z,58.00
2018-04-22T22:17:52.740Z,57.90
2018-04-22T22:20:21.032Z,57.80
2018-04-22T22:22:48.600Z,57.80
2018-04-22T22:25:16.111Z,57.50
2018-04-22T22:27:43.650Z,57.50
2018-04-22T22:30:11.189Z,57.80
2018-04-22T22:32:38.705Z,58.60
2018-04-22T22:35:07.735Z,58.00
2018-04-22T22:37:36.029Z,57.90
2018-04-22T22:40:03.559Z,57.90
2018-04-22T22:42:31.077Z,57.90
2018-04-22T22:44:58.619Z,58.40
2018-04-22T22:47:26.137Z,57.80
2018-04-22T22:49:53.635Z,57.90
2018-04-22T22:52:21.920Z,58.10
2018-04-22T22:54:50.187Z,58.40
2018-04-22T22:57:18.488Z,58.50
2018-04-22T22:59:46.005Z,58.50
2018-04-22T23:02:13.560Z,58.10
2018-04-22T23:04:41.078Z,58.20
2018-04-22T23:07:08.584Z,58.10
2018-04-22T23:09:36.114Z,58.10
2018-04-22T23:12:03.638Z,58.00
2018-04-22T23:14:31.166Z,57.80
2018-04-22T23:16:58.707Z,57.70
2018-04-22T23:19:26.229Z,57.50
2018-04-22T23:21:53.756Z,57.50
2018-04-22T23:24:21.285Z,57.60
2018-04-22T23:26:48.801Z,57.60
2018-04-22T23:29:16.314Z,57.60
2018-04-22T23:31:43.859Z,57.70
2018-04-22T23:34:12.137Z,58.00
2018-04-22T23:36:40.418Z,57.80
2018-04-22T23:39:08.728Z,58.00
2018-04-22T23:41:36.236Z,57.90
2018-04-22T23:44:03.750Z,59.50
2018-04-22T23:46:31.257Z,59.80
2018-04-22T23:48:58.790Z,59.50
2018-04-22T23:51:26.305Z,60.20
2018-04-22T23:53:53.832Z,60.00
2018-04-22T23:56:21.378Z,60.40
2018-04-22T23:58:48.901Z,60.40
